sensor_id;sensor_type;location;lat;lon;timestamp;P1;durP1;ratioP1;P2;durP2;ratioP2
2710;SDS011;20721;47.402;8.550;2023-02-22T00:00:20;9.97;;;9.86;;
2710;SDS011;20721;47.402;8.550;2023-02-22T00:01:17;10.29;;;10.21;;
2710;SDS011;20721;47.402;8.550;2023-02-22T00:03:14;10.18;;;10.12;;
2710;SDS011;20721;47.402;8.550;2023-02-22T00:04:13;10.19;;;10.10;;
2710;SDS011;20721;47.402;8.550;2023-02-22T00:05:13;9.97;;;9.84;;
2710;SDS011;20721;47.402;8.550;2023-02-22T00:06:16;10.12;;;10.04;;
2710;SDS011;20721;47.402;8.550;2023-02-22T00:08:13;9.90;;;9.85;;
2710;SDS011;20721;47.402;8.550;2023-02-22T00:09:12;10.73;;;10.69;;
2710;SDS011;20721;47.402;8.550;2023-02-22T00:10:13;10.11;;;9.97;;
2710;SDS011;20721;47.402;8.550;2023-02-22T00:11:14;10.34;;;10.27;;
2710;SDS011;20721;47.402;8.550;2023-02-22T00:12:12;9.81;;;9.76;;
2710;SDS011;20721;47.402;8.550;2023-02-22T00:13:13;9.63;;;9.63;;
2710;SDS011;20721;47.402;8.550;2023-02-22T00:14:12;11.18;;;11.18;;
2710;SDS011;20721;47.402;8.550;2023-02-22T00:15:12;9.87;;;9.87;;
2710;SDS011;20721;47.402;8.550;2023-02-22T00:16:14;9.89;;;9.89;;
2710;SDS011;20721;47.402;8.550;2023-02-22T00:17:12;10.47;;;10.43;;
2710;SDS011;20721;47.402;8.550;2023-02-22T00:19:12;11.07;;;11.06;;
2710;SDS011;20721;47.402;8.550;2023-02-22T00:20:15;11.39;;;11.39;;
2710;SDS011;20721;47.402;8.550;2023-02-22T00:21:13;10.15;;;10.14;;
2710;SDS011;20721;47.402;8.550;2023-02-22T00:22:12;10.63;;;10.63;;
2710;SDS011;20721;47.402;8.550;2023-02-22T00:23:18;10.94;;;10.88;;
2710;SDS011;20721;47.402;8.550;2023-02-22T00:24:22;10.35;;;10.35;;
2710;SDS011;20721;47.402;8.550;2023-02-22T00:25:13;10.44;;;10.44;;
2710;SDS011;20721;47.402;8.550;2023-02-22T00:26:13;10.10;;;10.09;;
2710;SDS011;20721;47.402;8.550;2023-02-22T00:27:12;10.60;;;10.45;;
2710;SDS011;20721;47.402;8.550;2023-02-22T00:28:14;10.95;;;10.78;;
2710;SDS011;20721;47.402;8.550;2023-02-22T00:29:12;10.79;;;10.65;;
2710;SDS011;20721;47.402;8.550;2023-02-22T00:30:15;10.45;;;10.35;;
2710;SDS011;20721;47.402;8.550;2023-02-22T00:31:15;10.45;;;10.35;;
2710;SDS011;20721;47.402;8.550;2023-02-22T00:32:13;10.14;;;10.07;;
2710;SDS011;20721;47.402;8.550;2023-02-22T00:33:13;11.33;;;11.25;;
2710;SDS011;20721;47.402;8.550;2023-02-22T00:34:12;11.25;;;11.18;;
2710;SDS011;20721;47.402;8.550;2023-02-22T00:36:12;11.75;;;11.75;;
2710;SDS011;20721;47.402;8.550;2023-02-22T00:37:13;10.72;;;10.72;;
2710;SDS011;20721;47.402;8.550;2023-02-22T00:38:13;11.09;;;11.09;;
2710;SDS011;20721;47.402;8.550;2023-02-22T00:41:12;11.41;;;11.40;;
2710;SDS011;20721;47.402;8.550;2023-02-22T00:42:13;11.68;;;11.63;;
2710;SDS011;20721;47.402;8.550;2023-02-22T00:43:13;11.47;;;11.42;;
2710;SDS011;20721;47.402;8.550;2023-02-22T00:45:15;11.64;;;11.58;;
2710;SDS011;20721;47.402;8.550;2023-02-22T00:46:13;11.83;;;11.82;;
2710;SDS011;20721;47.402;8.550;2023-02-22T00:48:13;11.67;;;11.57;;
2710;SDS011;20721;47.402;8.550;2023-02-22T00:50:14;12.04;;;12.04;;
2710;SDS011;20721;47.402;8.550;2023-02-22T00:53:14;11.25;;;11.24;;
2710;SDS011;20721;47.402;8.550;2023-02-22T00:54:12;11.60;;;11.60;;
2710;SDS011;20721;47.402;8.550;2023-02-22T00:55:15;11.89;;;11.89;;
2710;SDS011;20721;47.402;8.550;2023-02-22T00:56:12;12.13;;;12.13;;
2710;SDS011;20721;47.402;8.550;2023-02-22T00:57:12;12.15;;;12.15;;
2710;SDS011;20721;47.402;8.550;2023-02-22T00:58:13;11.43;;;11.43;;
2710;SDS011;20721;47.402;8.550;2023-02-22T00:59:13;11.31;;;11.31;;
2710;SDS011;20721;47.402;8.550;2023-02-22T01:01:12;10.70;;;10.70;;
2710;SDS011;20721;47.402;8.550;2023-02-22T01:03:16;11.80;;;11.73;;
2710;SDS011;20721;47.402;8.550;2023-02-22T01:08:13;11.55;;;11.55;;
2710;SDS011;20721;47.402;8.550;2023-02-22T01:09:14;11.22;;;11.19;;
2710;SDS011;20721;47.402;8.550;2023-02-22T01:10:13;10.88;;;10.82;;
2710;SDS011;20721;47.402;8.550;2023-02-22T01:11:13;11.50;;;11.48;;
2710;SDS011;20721;47.402;8.550;2023-02-22T01:12:12;11.15;;;11.14;;
2710;SDS011;20721;47.402;8.550;2023-02-22T01:13:18;11.35;;;11.28;;
2710;SDS011;20721;47.402;8.550;2023-02-22T01:14:12;12.28;;;12.18;;
2710;SDS011;20721;47.402;8.550;2023-02-22T01:15:15;11.80;;;11.80;;
2710;SDS011;20721;47.402;8.550;2023-02-22T01:16:13;10.66;;;10.66;;
2710;SDS011;20721;47.402;8.550;2023-02-22T01:17:12;10.70;;;10.70;;
2710;SDS011;20721;47.402;8.550;2023-02-22T01:19:13;12.18;;;12.18;;
2710;SDS011;20721;47.402;8.550;2023-02-22T01:20:19;12.25;;;12.15;;
2710;SDS011;20721;47.402;8.550;2023-02-22T01:21:13;11.38;;;11.22;;
2710;SDS011;20721;47.402;8.550;2023-02-22T01:23:13;11.01;;;10.98;;
2710;SDS011;20721;47.402;8.550;2023-02-22T01:24:13;10.08;;;10.01;;
2710;SDS011;20721;47.402;8.550;2023-02-22T01:25:15;11.26;;;11.21;;
2710;SDS011;20721;47.402;8.550;2023-02-22T01:26:14;12.60;;;12.60;;
2710;SDS011;20721;47.402;8.550;2023-02-22T01:27:12;11.67;;;11.65;;
2710;SDS011;20721;47.402;8.550;2023-02-22T01:28:13;11.42;;;11.42;;
2710;SDS011;20721;47.402;8.550;2023-02-22T01:29:12;10.63;;;10.60;;
2710;SDS011;20721;47.402;8.550;2023-02-22T01:30:20;11.01;;;10.98;;
2710;SDS011;20721;47.402;8.550;2023-02-22T01:31:13;10.94;;;10.83;;
2710;SDS011;20721;47.402;8.550;2023-02-22T01:32:12;11.20;;;11.12;;
2710;SDS011;20721;47.402;8.550;2023-02-22T01:33:14;10.52;;;10.44;;
2710;SDS011;20721;47.402;8.550;2023-02-22T01:34:12;10.95;;;10.91;;
2710;SDS011;20721;47.402;8.550;2023-02-22T01:35:16;11.09;;;11.09;;
2710;SDS011;20721;47.402;8.550;2023-02-22T01:36:12;11.49;;;11.37;;
2710;SDS011;20721;47.402;8.550;2023-02-22T01:37:13;11.36;;;11.27;;
2710;SDS011;20721;47.402;8.550;2023-02-22T01:39:12;10.92;;;10.81;;
2710;SDS011;20721;47.402;8.550;2023-02-22T01:40:16;10.58;;;10.58;;
2710;SDS011;20721;47.402;8.550;2023-02-22T01:41:13;11.06;;;11.06;;
2710;SDS011;20721;47.402;8.550;2023-02-22T01:42:12;11.36;;;11.34;;
2710;SDS011;20721;47.402;8.550;2023-02-22T01:43:23;11.72;;;11.62;;
2710;SDS011;20721;47.402;8.550;2023-02-22T01:44:27;11.41;;;11.34;;
2710;SDS011;20721;47.402;8.550;2023-02-22T01:49:14;11.14;;;11.12;;
2710;SDS011;20721;47.402;8.550;2023-02-22T01:50:12;11.48;;;11.46;;
2710;SDS011;20721;47.402;8.550;2023-02-22T01:51:17;12.07;;;12.07;;
2710;SDS011;20721;47.402;8.550;2023-02-22T01:52:16;12.97;;;12.97;;
2710;SDS011;20721;47.402;8.550;2023-02-22T01:53:13;12.03;;;12.03;;
2710;SDS011;20721;47.402;8.550;2023-02-22T01:55:13;11.14;;;11.14;;
2710;SDS011;20721;47.402;8.550;2023-02-22T01:56:13;11.42;;;11.36;;
2710;SDS011;20721;47.402;8.550;2023-02-22T01:57:19;11.39;;;11.39;;
2710;SDS011;20721;47.402;8.550;2023-02-22T01:59:16;12.40;;;12.27;;
2710;SDS011;20721;47.402;8.550;2023-02-22T02:01:13;12.36;;;12.20;;
2710;SDS011;20721;47.402;8.550;2023-02-22T02:02:14;13.44;;;13.24;;
2710;SDS011;20721;47.402;8.550;2023-02-22T02:03:20;12.13;;;11.99;;
2710;SDS011;20721;47.402;8.550;2023-02-22T02:04:16;11.09;;;11.06;;
2710;SDS011;20721;47.402;8.550;2023-02-22T02:05:17;12.41;;;12.37;;
2710;SDS011;20721;47.402;8.550;2023-02-22T02:07:16;13.11;;;13.07;;
2710;SDS011;20721;47.402;8.550;2023-02-22T02:08:26;13.07;;;13.07;;
2710;SDS011;20721;47.402;8.550;2023-02-22T02:10:15;12.91;;;12.91;;
2710;SDS011;20721;47.402;8.550;2023-02-22T02:12:16;11.63;;;11.63;;
2710;SDS011;20721;47.402;8.550;2023-02-22T02:13:14;11.42;;;11.42;;
2710;SDS011;20721;47.402;8.550;2023-02-22T02:14:12;12.35;;;12.35;;
2710;SDS011;20721;47.402;8.550;2023-02-22T02:18:14;12.87;;;12.87;;
2710;SDS011;20721;47.402;8.550;2023-02-22T02:20:18;12.48;;;12.48;;
2710;SDS011;20721;47.402;8.550;2023-02-22T02:24:25;12.39;;;12.39;;
2710;SDS011;20721;47.402;8.550;2023-02-22T02:25:38;12.18;;;12.18;;
2710;SDS011;20721;47.402;8.550;2023-02-22T02:27:33;13.35;;;13.15;;
2710;SDS011;20721;47.402;8.550;2023-02-22T02:33:26;13.13;;;13.12;;
2710;SDS011;20721;47.402;8.550;2023-02-22T02:34:22;12.67;;;12.67;;
2710;SDS011;20721;47.402;8.550;2023-02-22T02:35:27;12.26;;;12.18;;
2710;SDS011;20721;47.402;8.550;2023-02-22T02:36:20;13.35;;;13.24;;
2710;SDS011;20721;47.402;8.550;2023-02-22T02:38:24;12.60;;;12.60;;
2710;SDS011;20721;47.402;8.550;2023-02-22T02:39:26;12.92;;;12.84;;
2710;SDS011;20721;47.402;8.550;2023-02-22T02:42:17;11.97;;;11.97;;
2710;SDS011;20721;47.402;8.550;2023-02-22T02:43:14;12.59;;;12.56;;
2710;SDS011;20721;47.402;8.550;2023-02-22T02:44:40;12.40;;;12.36;;
2710;SDS011;20721;47.402;8.550;2023-02-22T02:45:18;12.15;;;12.13;;
2710;SDS011;20721;47.402;8.550;2023-02-22T02:47:19;11.37;;;11.37;;
2710;SDS011;20721;47.402;8.550;2023-02-22T02:48:14;11.71;;;11.71;;
2710;SDS011;20721;47.402;8.550;2023-02-22T02:49:21;11.78;;;11.78;;
2710;SDS011;20721;47.402;8.550;2023-02-22T02:50:14;12.16;;;12.16;;
2710;SDS011;20721;47.402;8.550;2023-02-22T02:51:15;13.02;;;13.00;;
2710;SDS011;20721;47.402;8.550;2023-02-22T02:52:13;12.78;;;12.72;;
2710;SDS011;20721;47.402;8.550;2023-02-22T02:53:16;12.36;;;12.23;;
2710;SDS011;20721;47.402;8.550;2023-02-22T02:54:13;12.73;;;12.64;;
2710;SDS011;20721;47.402;8.550;2023-02-22T02:55:13;11.64;;;11.57;;
2710;SDS011;20721;47.402;8.550;2023-02-22T02:56:13;12.43;;;12.43;;
2710;SDS011;20721;47.402;8.550;2023-02-22T02:57:13;12.13;;;12.02;;
2710;SDS011;20721;47.402;8.550;2023-02-22T02:59:29;11.94;;;11.94;;
2710;SDS011;20721;47.402;8.550;2023-02-22T03:00:19;11.07;;;11.07;;
2710;SDS011;20721;47.402;8.550;2023-02-22T03:01:17;12.55;;;12.55;;
2710;SDS011;20721;47.402;8.550;2023-02-22T03:06:20;11.52;;;11.51;;
2710;SDS011;20721;47.402;8.550;2023-02-22T03:13:25;11.47;;;11.35;;
2710;SDS011;20721;47.402;8.550;2023-02-22T03:16:29;11.45;;;11.45;;
2710;SDS011;20721;47.402;8.550;2023-02-22T03:17:25;12.36;;;12.36;;
2710;SDS011;20721;47.402;8.550;2023-02-22T03:18:21;12.70;;;12.70;;
2710;SDS011;20721;47.402;8.550;2023-02-22T03:19:32;12.37;;;12.30;;
2710;SDS011;20721;47.402;8.550;2023-02-22T03:22:18;12.97;;;12.77;;
2710;SDS011;20721;47.402;8.550;2023-02-22T03:25:21;13.33;;;13.32;;
2710;SDS011;20721;47.402;8.550;2023-02-22T03:26:21;12.74;;;12.71;;
2710;SDS011;20721;47.402;8.550;2023-02-22T03:28:15;13.18;;;13.18;;
2710;SDS011;20721;47.402;8.550;2023-02-22T03:29:16;12.12;;;12.09;;
2710;SDS011;20721;47.402;8.550;2023-02-22T03:30:19;11.13;;;11.13;;
2710;SDS011;20721;47.402;8.550;2023-02-22T03:31:17;11.87;;;11.87;;
2710;SDS011;20721;47.402;8.550;2023-02-22T03:33:37;12.19;;;12.09;;
2710;SDS011;20721;47.402;8.550;2023-02-22T03:35:24;11.37;;;11.30;;
2710;SDS011;20721;47.402;8.550;2023-02-22T03:36:18;11.59;;;11.52;;
2710;SDS011;20721;47.402;8.550;2023-02-22T03:37:17;10.98;;;10.98;;
2710;SDS011;20721;47.402;8.550;2023-02-22T03:38:16;11.32;;;11.32;;
2710;SDS011;20721;47.402;8.550;2023-02-22T03:39:15;10.67;;;10.67;;
2710;SDS011;20721;47.402;8.550;2023-02-22T03:40:27;10.45;;;10.45;;
2710;SDS011;20721;47.402;8.550;2023-02-22T03:41:17;11.53;;;11.53;;
2710;SDS011;20721;47.402;8.550;2023-02-22T03:42:17;12.10;;;12.10;;
2710;SDS011;20721;47.402;8.550;2023-02-22T03:43:20;12.12;;;12.12;;
2710;SDS011;20721;47.402;8.550;2023-02-22T03:44:17;11.68;;;11.68;;
2710;SDS011;20721;47.402;8.550;2023-02-22T03:47:16;11.29;;;11.29;;
2710;SDS011;20721;47.402;8.550;2023-02-22T03:48:26;12.21;;;12.21;;
2710;SDS011;20721;47.402;8.550;2023-02-22T03:50:20;12.27;;;12.20;;
2710;SDS011;20721;47.402;8.550;2023-02-22T03:51:14;11.88;;;11.79;;
2710;SDS011;20721;47.402;8.550;2023-02-22T03:53:13;11.57;;;11.50;;
2710;SDS011;20721;47.402;8.550;2023-02-22T03:54:13;11.26;;;11.21;;
2710;SDS011;20721;47.402;8.550;2023-02-22T03:55:13;12.35;;;12.18;;
2710;SDS011;20721;47.402;8.550;2023-02-22T03:59:14;11.74;;;11.65;;
2710;SDS011;20721;47.402;8.550;2023-02-22T04:00:19;12.23;;;12.23;;
2710;SDS011;20721;47.402;8.550;2023-02-22T04:02:13;12.46;;;12.46;;
2710;SDS011;20721;47.402;8.550;2023-02-22T04:03:13;12.15;;;12.15;;
2710;SDS011;20721;47.402;8.550;2023-02-22T04:04:13;11.91;;;11.91;;
2710;SDS011;20721;47.402;8.550;2023-02-22T04:06:13;12.61;;;12.61;;
2710;SDS011;20721;47.402;8.550;2023-02-22T04:07:13;11.90;;;11.90;;
2710;SDS011;20721;47.402;8.550;2023-02-22T04:08:13;11.83;;;11.75;;
2710;SDS011;20721;47.402;8.550;2023-02-22T04:12:13;11.36;;;11.21;;
2710;SDS011;20721;47.402;8.550;2023-02-22T04:13:13;10.82;;;10.81;;
2710;SDS011;20721;47.402;8.550;2023-02-22T04:15:14;10.72;;;10.70;;
2710;SDS011;20721;47.402;8.550;2023-02-22T04:16:13;9.66;;;9.66;;
2710;SDS011;20721;47.402;8.550;2023-02-22T04:17:13;10.59;;;10.59;;
2710;SDS011;20721;47.402;8.550;2023-02-22T04:18:13;10.20;;;10.20;;
2710;SDS011;20721;47.402;8.550;2023-02-22T04:19:13;11.93;;;11.75;;
2710;SDS011;20721;47.402;8.550;2023-02-22T04:20:14;11.54;;;11.33;;
2710;SDS011;20721;47.402;8.550;2023-02-22T04:21:13;10.50;;;10.50;;
2710;SDS011;20721;47.402;8.550;2023-02-22T04:22:13;10.97;;;10.97;;
2710;SDS011;20721;47.402;8.550;2023-02-22T04:23:13;10.40;;;10.40;;
2710;SDS011;20721;47.402;8.550;2023-02-22T04:25:13;10.24;;;10.15;;
2710;SDS011;20721;47.402;8.550;2023-02-22T04:26:13;11.14;;;11.11;;
2710;SDS011;20721;47.402;8.550;2023-02-22T04:27:13;10.18;;;10.18;;
2710;SDS011;20721;47.402;8.550;2023-02-22T04:30:15;11.72;;;11.65;;
2710;SDS011;20721;47.402;8.550;2023-02-22T04:31:13;11.45;;;11.31;;
2710;SDS011;20721;47.402;8.550;2023-02-22T04:32:13;11.13;;;11.06;;
2710;SDS011;20721;47.402;8.550;2023-02-22T04:33:13;10.63;;;10.55;;
2710;SDS011;20721;47.402;8.550;2023-02-22T04:34:13;11.50;;;11.49;;
2710;SDS011;20721;47.402;8.550;2023-02-22T04:35:13;10.80;;;10.78;;
2710;SDS011;20721;47.402;8.550;2023-02-22T04:36:13;10.24;;;10.23;;
2710;SDS011;20721;47.402;8.550;2023-02-22T04:37:13;10.42;;;10.42;;
2710;SDS011;20721;47.402;8.550;2023-02-22T04:38:13;10.24;;;10.24;;
2710;SDS011;20721;47.402;8.550;2023-02-22T04:39:14;11.84;;;11.84;;
2710;SDS011;20721;47.402;8.550;2023-02-22T04:40:16;11.03;;;11.01;;
2710;SDS011;20721;47.402;8.550;2023-02-22T04:41:13;10.07;;;10.03;;
2710;SDS011;20721;47.402;8.550;2023-02-22T04:44:13;11.07;;;11.07;;
2710;SDS011;20721;47.402;8.550;2023-02-22T04:45:14;10.76;;;10.76;;
2710;SDS011;20721;47.402;8.550;2023-02-22T04:46:13;11.37;;;11.33;;
2710;SDS011;20721;47.402;8.550;2023-02-22T04:47:13;11.44;;;11.36;;
2710;SDS011;20721;47.402;8.550;2023-02-22T04:50:14;11.14;;;11.08;;
2710;SDS011;20721;47.402;8.550;2023-02-22T04:52:13;11.63;;;11.51;;
2710;SDS011;20721;47.402;8.550;2023-02-22T04:53:13;10.28;;;10.28;;
2710;SDS011;20721;47.402;8.550;2023-02-22T04:54:13;11.47;;;11.47;;
2710;SDS011;20721;47.402;8.550;2023-02-22T04:57:13;10.10;;;10.10;;
2710;SDS011;20721;47.402;8.550;2023-02-22T04:58:13;10.82;;;10.82;;
2710;SDS011;20721;47.402;8.550;2023-02-22T04:59:13;10.05;;;10.05;;
2710;SDS011;20721;47.402;8.550;2023-02-22T05:00:15;9.87;;;9.83;;
2710;SDS011;20721;47.402;8.550;2023-02-22T05:01:13;10.02;;;10.02;;
2710;SDS011;20721;47.402;8.550;2023-02-22T05:02:13;10.37;;;10.37;;
2710;SDS011;20721;47.402;8.550;2023-02-22T05:03:13;10.24;;;10.24;;
2710;SDS011;20721;47.402;8.550;2023-02-22T05:06:13;10.30;;;10.30;;
2710;SDS011;20721;47.402;8.550;2023-02-22T05:08:13;10.42;;;10.42;;
2710;SDS011;20721;47.402;8.550;2023-02-22T05:10:13;10.58;;;10.58;;
2710;SDS011;20721;47.402;8.550;2023-02-22T05:11:14;11.74;;;11.68;;
2710;SDS011;20721;47.402;8.550;2023-02-22T05:12:13;11.53;;;11.44;;
2710;SDS011;20721;47.402;8.550;2023-02-22T05:14:13;9.86;;;9.85;;
2710;SDS011;20721;47.402;8.550;2023-02-22T05:15:16;10.52;;;10.50;;
2710;SDS011;20721;47.402;8.550;2023-02-22T05:17:13;11.37;;;11.28;;
2710;SDS011;20721;47.402;8.550;2023-02-22T05:19:13;10.71;;;10.68;;
2710;SDS011;20721;47.402;8.550;2023-02-22T05:21:13;10.37;;;10.37;;
2710;SDS011;20721;47.402;8.550;2023-02-22T05:22:14;10.11;;;10.11;;
2710;SDS011;20721;47.402;8.550;2023-02-22T05:23:14;10.54;;;10.49;;
2710;SDS011;20721;47.402;8.550;2023-02-22T05:24:13;10.59;;;10.50;;
2710;SDS011;20721;47.402;8.550;2023-02-22T05:25:13;10.29;;;10.28;;
2710;SDS011;20721;47.402;8.550;2023-02-22T05:26:13;10.33;;;10.32;;
2710;SDS011;20721;47.402;8.550;2023-02-22T05:28:17;10.68;;;10.68;;
2710;SDS011;20721;47.402;8.550;2023-02-22T05:29:13;10.75;;;10.75;;
2710;SDS011;20721;47.402;8.550;2023-02-22T05:30:13;10.60;;;10.47;;
2710;SDS011;20721;47.402;8.550;2023-02-22T05:31:13;10.32;;;10.16;;
2710;SDS011;20721;47.402;8.550;2023-02-22T05:33:13;10.98;;;10.88;;
2710;SDS011;20721;47.402;8.550;2023-02-22T05:34:14;11.04;;;10.87;;
2710;SDS011;20721;47.402;8.550;2023-02-22T05:35:15;11.32;;;11.14;;
2710;SDS011;20721;47.402;8.550;2023-02-22T05:36:13;11.82;;;11.62;;
2710;SDS011;20721;47.402;8.550;2023-02-22T05:37:13;10.52;;;10.52;;
2710;SDS011;20721;47.402;8.550;2023-02-22T05:38:14;10.53;;;10.53;;
2710;SDS011;20721;47.402;8.550;2023-02-22T05:40:14;10.68;;;10.68;;
2710;SDS011;20721;47.402;8.550;2023-02-22T05:42:13;10.90;;;10.90;;
2710;SDS011;20721;47.402;8.550;2023-02-22T05:43:13;10.64;;;10.48;;
2710;SDS011;20721;47.402;8.550;2023-02-22T05:44:13;10.29;;;10.20;;
2710;SDS011;20721;47.402;8.550;2023-02-22T05:45:14;11.58;;;11.45;;
2710;SDS011;20721;47.402;8.550;2023-02-22T05:49:13;10.40;;;10.40;;
2710;SDS011;20721;47.402;8.550;2023-02-22T05:51:13;11.01;;;11.00;;
2710;SDS011;20721;47.402;8.550;2023-02-22T05:52:13;10.52;;;10.51;;
2710;SDS011;20721;47.402;8.550;2023-02-22T05:53:14;10.72;;;10.69;;
2710;SDS011;20721;47.402;8.550;2023-02-22T05:56:18;10.50;;;10.42;;
2710;SDS011;20721;47.402;8.550;2023-02-22T05:58:14;10.40;;;10.36;;
2710;SDS011;20721;47.402;8.550;2023-02-22T05:59:13;10.52;;;10.47;;
2710;SDS011;20721;47.402;8.550;2023-02-22T06:00:16;10.44;;;10.41;;
2710;SDS011;20721;47.402;8.550;2023-02-22T06:01:14;11.40;;;11.35;;
2710;SDS011;20721;47.402;8.550;2023-02-22T06:02:13;10.85;;;10.85;;
2710;SDS011;20721;47.402;8.550;2023-02-22T06:03:14;10.80;;;10.80;;
2710;SDS011;20721;47.402;8.550;2023-02-22T06:06:14;10.40;;;10.35;;
2710;SDS011;20721;47.402;8.550;2023-02-22T06:07:13;11.43;;;11.33;;
2710;SDS011;20721;47.402;8.550;2023-02-22T06:08:14;11.76;;;11.71;;
2710;SDS011;20721;47.402;8.550;2023-02-22T06:09:13;11.37;;;11.34;;
2710;SDS011;20721;47.402;8.550;2023-02-22T06:10:13;11.55;;;11.49;;
2710;SDS011;20721;47.402;8.550;2023-02-22T06:11:13;11.14;;;11.00;;
2710;SDS011;20721;47.402;8.550;2023-02-22T06:13:14;12.05;;;11.96;;
2710;SDS011;20721;47.402;8.550;2023-02-22T06:14:13;11.74;;;11.72;;
2710;SDS011;20721;47.402;8.550;2023-02-22T06:17:14;12.00;;;12.00;;
2710;SDS011;20721;47.402;8.550;2023-02-22T06:18:13;11.06;;;11.06;;
2710;SDS011;20721;47.402;8.550;2023-02-22T06:19:13;11.09;;;11.05;;
2710;SDS011;20721;47.402;8.550;2023-02-22T06:20:14;11.09;;;11.09;;
2710;SDS011;20721;47.402;8.550;2023-02-22T06:24:13;10.74;;;10.68;;
2710;SDS011;20721;47.402;8.550;2023-02-22T06:25:15;11.53;;;11.53;;
2710;SDS011;20721;47.402;8.550;2023-02-22T06:26:15;11.34;;;11.28;;
2710;SDS011;20721;47.402;8.550;2023-02-22T06:27:13;11.10;;;11.10;;
2710;SDS011;20721;47.402;8.550;2023-02-22T06:28:13;10.89;;;10.89;;
2710;SDS011;20721;47.402;8.550;2023-02-22T06:29:14;10.85;;;10.85;;
2710;SDS011;20721;47.402;8.550;2023-02-22T06:30:14;11.38;;;11.34;;
2710;SDS011;20721;47.402;8.550;2023-02-22T06:31:13;11.73;;;11.73;;
2710;SDS011;20721;47.402;8.550;2023-02-22T06:32:13;12.62;;;12.62;;
2710;SDS011;20721;47.402;8.550;2023-02-22T06:33:13;11.35;;;11.35;;
2710;SDS011;20721;47.402;8.550;2023-02-22T06:34:13;10.88;;;10.88;;
2710;SDS011;20721;47.402;8.550;2023-02-22T06:35:14;11.14;;;11.14;;
2710;SDS011;20721;47.402;8.550;2023-02-22T06:36:14;11.40;;;11.40;;
2710;SDS011;20721;47.402;8.550;2023-02-22T06:37:13;10.72;;;10.72;;
2710;SDS011;20721;47.402;8.550;2023-02-22T06:39:14;9.92;;;9.92;;
2710;SDS011;20721;47.402;8.550;2023-02-22T06:40:16;11.58;;;11.43;;
2710;SDS011;20721;47.402;8.550;2023-02-22T06:41:13;10.63;;;10.63;;
2710;SDS011;20721;47.402;8.550;2023-02-22T06:42:13;10.61;;;10.61;;
2710;SDS011;20721;47.402;8.550;2023-02-22T06:43:13;12.93;;;12.93;;
2710;SDS011;20721;47.402;8.550;2023-02-22T06:44:14;13.56;;;13.56;;
2710;SDS011;20721;47.402;8.550;2023-02-22T06:45:15;12.16;;;12.16;;
2710;SDS011;20721;47.402;8.550;2023-02-22T06:46:13;10.93;;;10.93;;
2710;SDS011;20721;47.402;8.550;2023-02-22T06:47:13;11.18;;;11.18;;
2710;SDS011;20721;47.402;8.550;2023-02-22T06:48:13;11.73;;;11.73;;
2710;SDS011;20721;47.402;8.550;2023-02-22T06:49:14;11.05;;;11.04;;
2710;SDS011;20721;47.402;8.550;2023-02-22T06:50:18;10.96;;;10.96;;
2710;SDS011;20721;47.402;8.550;2023-02-22T06:51:13;10.51;;;10.51;;
2710;SDS011;20721;47.402;8.550;2023-02-22T06:52:14;11.66;;;11.66;;
2710;SDS011;20721;47.402;8.550;2023-02-22T06:53:13;10.82;;;10.82;;
2710;SDS011;20721;47.402;8.550;2023-02-22T06:54:13;10.40;;;10.40;;
2710;SDS011;20721;47.402;8.550;2023-02-22T06:55:21;10.49;;;10.48;;
2710;SDS011;20721;47.402;8.550;2023-02-22T06:56:13;10.48;;;10.48;;
2710;SDS011;20721;47.402;8.550;2023-02-22T06:57:13;10.37;;;10.37;;
2710;SDS011;20721;47.402;8.550;2023-02-22T06:58:14;10.29;;;10.29;;
2710;SDS011;20721;47.402;8.550;2023-02-22T07:00:14;11.13;;;11.13;;
2710;SDS011;20721;47.402;8.550;2023-02-22T07:01:15;10.85;;;10.84;;
2710;SDS011;20721;47.402;8.550;2023-02-22T07:02:13;10.36;;;10.36;;
2710;SDS011;20721;47.402;8.550;2023-02-22T07:03:13;10.19;;;10.19;;
2710;SDS011;20721;47.402;8.550;2023-02-22T07:04:13;9.14;;;9.14;;
2710;SDS011;20721;47.402;8.550;2023-02-22T07:05:14;10.35;;;10.35;;
2710;SDS011;20721;47.402;8.550;2023-02-22T07:06:13;10.83;;;10.83;;
2710;SDS011;20721;47.402;8.550;2023-02-22T07:07:13;10.46;;;10.46;;
2710;SDS011;20721;47.402;8.550;2023-02-22T07:08:14;10.53;;;10.51;;
2710;SDS011;20721;47.402;8.550;2023-02-22T07:09:14;10.53;;;10.53;;
2710;SDS011;20721;47.402;8.550;2023-02-22T07:10:16;10.96;;;10.96;;
2710;SDS011;20721;47.402;8.550;2023-02-22T07:11:13;10.88;;;10.88;;
2710;SDS011;20721;47.402;8.550;2023-02-22T07:12:13;11.17;;;11.15;;
2710;SDS011;20721;47.402;8.550;2023-02-22T07:13:14;12.41;;;12.41;;
2710;SDS011;20721;47.402;8.550;2023-02-22T07:14:15;12.99;;;12.99;;
2710;SDS011;20721;47.402;8.550;2023-02-22T07:15:14;13.00;;;12.99;;
2710;SDS011;20721;47.402;8.550;2023-02-22T07:16:14;12.53;;;12.53;;
2710;SDS011;20721;47.402;8.550;2023-02-22T07:17:13;13.77;;;13.77;;
2710;SDS011;20721;47.402;8.550;2023-02-22T07:18:13;14.15;;;14.15;;
2710;SDS011;20721;47.402;8.550;2023-02-22T07:19:13;15.40;;;15.34;;
2710;SDS011;20721;47.402;8.550;2023-02-22T07:20:14;14.77;;;14.69;;
2710;SDS011;20721;47.402;8.550;2023-02-22T07:21:13;14.60;;;14.60;;
2710;SDS011;20721;47.402;8.550;2023-02-22T07:22:15;14.71;;;14.71;;
2710;SDS011;20721;47.402;8.550;2023-02-22T07:23:14;13.02;;;13.02;;
2710;SDS011;20721;47.402;8.550;2023-02-22T07:24:15;14.91;;;14.91;;
2710;SDS011;20721;47.402;8.550;2023-02-22T07:25:15;14.49;;;14.40;;
2710;SDS011;20721;47.402;8.550;2023-02-22T07:26:14;15.14;;;15.13;;
2710;SDS011;20721;47.402;8.550;2023-02-22T07:27:13;14.74;;;14.71;;
2710;SDS011;20721;47.402;8.550;2023-02-22T07:28:13;14.84;;;14.84;;
2710;SDS011;20721;47.402;8.550;2023-02-22T07:29:13;13.75;;;13.75;;
2710;SDS011;20721;47.402;8.550;2023-02-22T07:30:17;14.19;;;14.19;;
2710;SDS011;20721;47.402;8.550;2023-02-22T07:31:14;13.57;;;13.57;;
2710;SDS011;20721;47.402;8.550;2023-02-22T07:32:13;14.10;;;14.09;;
2710;SDS011;20721;47.402;8.550;2023-02-22T07:33:15;13.41;;;13.41;;
2710;SDS011;20721;47.402;8.550;2023-02-22T07:34:13;13.69;;;13.69;;
2710;SDS011;20721;47.402;8.550;2023-02-22T07:35:15;13.82;;;13.82;;
2710;SDS011;20721;47.402;8.550;2023-02-22T07:36:14;13.67;;;13.67;;
2710;SDS011;20721;47.402;8.550;2023-02-22T07:37:13;14.66;;;14.64;;
2710;SDS011;20721;47.402;8.550;2023-02-22T07:38:15;16.28;;;16.24;;
2710;SDS011;20721;47.402;8.550;2023-02-22T07:39:13;16.35;;;16.34;;
2710;SDS011;20721;47.402;8.550;2023-02-22T07:40:13;15.12;;;15.00;;
2710;SDS011;20721;47.402;8.550;2023-02-22T07:41:14;15.07;;;14.95;;
2710;SDS011;20721;47.402;8.550;2023-02-22T07:42:13;14.78;;;14.71;;
2710;SDS011;20721;47.402;8.550;2023-02-22T07:43:25;15.52;;;15.39;;
2710;SDS011;20721;47.402;8.550;2023-02-22T07:44:13;14.78;;;14.78;;
2710;SDS011;20721;47.402;8.550;2023-02-22T07:45:13;14.17;;;14.17;;
2710;SDS011;20721;47.402;8.550;2023-02-22T07:46:13;14.11;;;14.11;;
2710;SDS011;20721;47.402;8.550;2023-02-22T07:47:13;14.52;;;14.52;;
2710;SDS011;20721;47.402;8.550;2023-02-22T07:48:14;14.32;;;14.25;;
2710;SDS011;20721;47.402;8.550;2023-02-22T07:49:13;14.91;;;14.91;;
2710;SDS011;20721;47.402;8.550;2023-02-22T07:50:14;13.42;;;13.42;;
2710;SDS011;20721;47.402;8.550;2023-02-22T07:51:15;14.42;;;14.40;;
2710;SDS011;20721;47.402;8.550;2023-02-22T07:52:15;12.37;;;12.36;;
2710;SDS011;20721;47.402;8.550;2023-02-22T07:53:16;11.95;;;11.94;;
2710;SDS011;20721;47.402;8.550;2023-02-22T07:54:13;12.49;;;12.49;;
2710;SDS011;20721;47.402;8.550;2023-02-22T07:55:14;11.72;;;11.72;;